sensor_id;sensor_type;location;lat;lon;timestamp;P1;durP1;ratioP1;P2;durP2;ratioP2
20067;SDS011;10194;50.824;7.134;2023-09-08T00:00:57;71.47;;;57.67;;
20067;SDS011;10194;50.824;7.134;2023-09-08T00:03:23;72.70;;;58.40;;
20067;SDS011;10194;50.824;7.134;2023-09-08T00:05:48;73.00;;;58.73;;
20067;SDS011;10194;50.824;7.134;2023-09-08T00:08:15;71.17;;;58.00;;
20067;SDS011;10194;50.824;7.134;2023-09-08T00:10:43;70.67;;;57.73;;
20067;SDS011;10194;50.824;7.134;2023-09-08T00:13:10;71.10;;;57.50;;
20067;SDS011;10194;50.824;7.134;2023-09-08T00:15:38;70.23;;;57.53;;
20067;SDS011;10194;50.824;7.134;2023-09-08T00:18:04;69.23;;;56.80;;
20067;SDS011;10194;50.824;7.134;2023-09-08T00:20:30;69.00;;;56.70;;
20067;SDS011;10194;50.824;7.134;2023-09-08T00:22:56;70.03;;;57.10;;
20067;SDS011;10194;50.824;7.134;2023-09-08T00:25:22;71.63;;;57.90;;
20067;SDS011;10194;50.824;7.134;2023-09-08T00:27:49;71.60;;;58.37;;
20067;SDS011;10194;50.824;7.134;2023-09-08T00:30:16;70.97;;;57.80;;
20067;SDS011;10194;50.824;7.134;2023-09-08T00:32:42;70.63;;;57.63;;
20067;SDS011;10194;50.824;7.134;2023-09-08T00:35:10;69.80;;;57.00;;
20067;SDS011;10194;50.824;7.134;2023-09-08T00:37:37;71.63;;;58.37;;
20067;SDS011;10194;50.824;7.134;2023-09-08T00:40:05;70.87;;;57.83;;
20067;SDS011;10194;50.824;7.134;2023-09-08T00:42:33;70.53;;;57.60;;
20067;SDS011;10194;50.824;7.134;2023-09-08T00:44:59;72.87;;;59.00;;
20067;SDS011;10194;50.824;7.134;2023-09-08T00:47:25;70.97;;;57.77;;
20067;SDS011;10194;50.824;7.134;2023-09-08T00:49:50;69.83;;;57.17;;
20067;SDS011;10194;50.824;7.134;2023-09-08T00:52:17;70.73;;;57.77;;
20067;SDS011;10194;50.824;7.134;2023-09-08T00:54:42;67.63;;;56.07;;
20067;SDS011;10194;50.824;7.134;2023-09-08T00:57:09;74.27;;;59.63;;
20067;SDS011;10194;50.824;7.134;2023-09-08T00:59:35;69.97;;;57.07;;
20067;SDS011;10194;50.824;7.134;2023-09-08T01:02:01;69.37;;;56.93;;
20067;SDS011;10194;50.824;7.134;2023-09-08T01:04:28;71.47;;;57.97;;
20067;SDS011;10194;50.824;7.134;2023-09-08T01:06:54;70.20;;;57.37;;
20067;SDS011;10194;50.824;7.134;2023-09-08T01:09:21;70.50;;;57.50;;
20067;SDS011;10194;50.824;7.134;2023-09-08T01:11:48;70.03;;;56.83;;
20067;SDS011;10194;50.824;7.134;2023-09-08T01:14:19;70.77;;;57.00;;
20067;SDS011;10194;50.824;7.134;2023-09-08T01:16:50;71.93;;;58.27;;
20067;SDS011;10194;50.824;7.134;2023-09-08T01:19:18;72.00;;;58.37;;
20067;SDS011;10194;50.824;7.134;2023-09-08T01:27:37;69.27;;;56.57;;
20067;SDS011;10194;50.824;7.134;2023-09-08T01:30:05;69.00;;;56.47;;
20067;SDS011;10194;50.824;7.134;2023-09-08T01:32:32;69.47;;;56.57;;
20067;SDS011;10194;50.824;7.134;2023-09-08T01:34:59;72.00;;;58.20;;
20067;SDS011;10194;50.824;7.134;2023-09-08T01:37:25;69.60;;;56.67;;
20067;SDS011;10194;50.824;7.134;2023-09-08T01:39:51;70.17;;;56.90;;
20067;SDS011;10194;50.824;7.134;2023-09-08T01:42:17;70.67;;;57.27;;
20067;SDS011;10194;50.824;7.134;2023-09-08T01:44:43;69.80;;;56.63;;
20067;SDS011;10194;50.824;7.134;2023-09-08T01:47:08;70.67;;;57.00;;
20067;SDS011;10194;50.824;7.134;2023-09-08T01:49:34;70.33;;;57.10;;
20067;SDS011;10194;50.824;7.134;2023-09-08T01:52:00;70.77;;;57.27;;
20067;SDS011;10194;50.824;7.134;2023-09-08T01:59:37;73.50;;;58.83;;
20067;SDS011;10194;50.824;7.134;2023-09-08T02:02:03;69.80;;;56.70;;
20067;SDS011;10194;50.824;7.134;2023-09-08T02:04:29;72.23;;;58.00;;
20067;SDS011;10194;50.824;7.134;2023-09-08T02:06:54;68.13;;;56.07;;
20067;SDS011;10194;50.824;7.134;2023-09-08T02:09:20;68.73;;;56.07;;
20067;SDS011;10194;50.824;7.134;2023-09-08T02:11:47;68.77;;;56.07;;
20067;SDS011;10194;50.824;7.134;2023-09-08T02:14:13;68.53;;;56.00;;
20067;SDS011;10194;50.824;7.134;2023-09-08T02:16:39;75.13;;;59.27;;
20067;SDS011;10194;50.824;7.134;2023-09-08T02:19:04;70.23;;;57.00;;
20067;SDS011;10194;50.824;7.134;2023-09-08T02:21:30;69.43;;;56.30;;
20067;SDS011;10194;50.824;7.134;2023-09-08T02:23:56;70.27;;;56.70;;
20067;SDS011;10194;50.824;7.134;2023-09-08T02:26:22;68.53;;;56.10;;
20067;SDS011;10194;50.824;7.134;2023-09-08T02:28:47;69.10;;;56.27;;
20067;SDS011;10194;50.824;7.134;2023-09-08T02:31:13;70.43;;;56.80;;
20067;SDS011;10194;50.824;7.134;2023-09-08T02:33:39;67.17;;;55.47;;
20067;SDS011;10194;50.824;7.134;2023-09-08T02:36:05;66.80;;;55.10;;
20067;SDS011;10194;50.824;7.134;2023-09-08T02:38:32;68.87;;;55.97;;
20067;SDS011;10194;50.824;7.134;2023-09-08T02:40:57;67.50;;;55.70;;
20067;SDS011;10194;50.824;7.134;2023-09-08T02:43:23;67.27;;;55.20;;
20067;SDS011;10194;50.824;7.134;2023-09-08T02:45:49;68.23;;;55.90;;
20067;SDS011;10194;50.824;7.134;2023-09-08T02:48:15;71.90;;;57.67;;
20067;SDS011;10194;50.824;7.134;2023-09-08T02:50:41;69.37;;;56.37;;
20067;SDS011;10194;50.824;7.134;2023-09-08T02:53:08;68.53;;;55.83;;
20067;SDS011;10194;50.824;7.134;2023-09-08T02:55:34;71.23;;;57.27;;
20067;SDS011;10194;50.824;7.134;2023-09-08T02:58:00;69.30;;;56.43;;
20067;SDS011;10194;50.824;7.134;2023-09-08T03:00:26;67.03;;;55.43;;
20067;SDS011;10194;50.824;7.134;2023-09-08T03:02:52;68.87;;;56.17;;
20067;SDS011;10194;50.824;7.134;2023-09-08T03:05:18;66.43;;;54.97;;
20067;SDS011;10194;50.824;7.134;2023-09-08T03:07:43;69.40;;;56.50;;
20067;SDS011;10194;50.824;7.134;2023-09-08T03:10:13;67.23;;;55.27;;
20067;SDS011;10194;50.824;7.134;2023-09-08T03:12:38;67.27;;;55.30;;
20067;SDS011;10194;50.824;7.134;2023-09-08T03:15:04;69.67;;;56.73;;
20067;SDS011;10194;50.824;7.134;2023-09-08T03:17:31;69.07;;;56.50;;
20067;SDS011;10194;50.824;7.134;2023-09-08T03:19:57;68.40;;;55.80;;
20067;SDS011;10194;50.824;7.134;2023-09-08T03:22:22;67.23;;;55.33;;
20067;SDS011;10194;50.824;7.134;2023-09-08T03:24:49;67.57;;;55.30;;
20067;SDS011;10194;50.824;7.134;2023-09-08T03:27:15;67.47;;;55.43;;
20067;SDS011;10194;50.824;7.134;2023-09-08T03:29:41;71.17;;;57.43;;
20067;SDS011;10194;50.824;7.134;2023-09-08T03:32:07;67.60;;;55.37;;
20067;SDS011;10194;50.824;7.134;2023-09-08T03:34:38;66.90;;;55.27;;
20067;SDS011;10194;50.824;7.134;2023-09-08T03:37:06;69.13;;;56.10;;
20067;SDS011;10194;50.824;7.134;2023-09-08T03:39:34;65.30;;;54.47;;
20067;SDS011;10194;50.824;7.134;2023-09-08T03:42:03;65.00;;;54.20;;
20067;SDS011;10194;50.824;7.134;2023-09-08T03:44:29;65.23;;;54.50;;
20067;SDS011;10194;50.824;7.134;2023-09-08T03:46:54;66.23;;;54.70;;
20067;SDS011;10194;50.824;7.134;2023-09-08T03:49:20;65.37;;;54.53;;
20067;SDS011;10194;50.824;7.134;2023-09-08T03:51:46;64.77;;;54.10;;
20067;SDS011;10194;50.824;7.134;2023-09-08T03:54:12;66.13;;;54.70;;
20067;SDS011;10194;50.824;7.134;2023-09-08T03:56:37;66.27;;;54.67;;
20067;SDS011;10194;50.824;7.134;2023-09-08T03:59:03;66.83;;;55.07;;
20067;SDS011;10194;50.824;7.134;2023-09-08T04:01:29;67.80;;;55.33;;
20067;SDS011;10194;50.824;7.134;2023-09-08T04:03:54;68.30;;;55.50;;
20067;SDS011;10194;50.824;7.134;2023-09-08T04:06:20;66.03;;;54.67;;
20067;SDS011;10194;50.824;7.134;2023-09-08T04:08:46;68.37;;;55.90;;
20067;SDS011;10194;50.824;7.134;2023-09-08T04:11:12;69.10;;;56.17;;
20067;SDS011;10194;50.824;7.134;2023-09-08T04:13:38;66.50;;;54.70;;
20067;SDS011;10194;50.824;7.134;2023-09-08T04:16:03;65.67;;;54.70;;
20067;SDS011;10194;50.824;7.134;2023-09-08T04:18:30;69.97;;;56.30;;
20067;SDS011;10194;50.824;7.134;2023-09-08T04:20:55;66.10;;;54.80;;
20067;SDS011;10194;50.824;7.134;2023-09-08T04:23:21;66.33;;;54.90;;
20067;SDS011;10194;50.824;7.134;2023-09-08T04:25:47;67.53;;;55.17;;
20067;SDS011;10194;50.824;7.134;2023-09-08T04:28:12;71.63;;;57.53;;
20067;SDS011;10194;50.824;7.134;2023-09-08T04:30:38;66.83;;;55.13;;
20067;SDS011;10194;50.824;7.134;2023-09-08T04:33:04;67.87;;;55.67;;
20067;SDS011;10194;50.824;7.134;2023-09-08T04:35:30;67.60;;;55.37;;
20067;SDS011;10194;50.824;7.134;2023-09-08T04:37:56;66.53;;;54.93;;
20067;SDS011;10194;50.824;7.134;2023-09-08T04:40:21;66.80;;;54.80;;
20067;SDS011;10194;50.824;7.134;2023-09-08T04:42:47;65.37;;;54.27;;
20067;SDS011;10194;50.824;7.134;2023-09-08T04:45:13;65.67;;;54.37;;
20067;SDS011;10194;50.824;7.134;2023-09-08T04:47:38;69.30;;;55.97;;
20067;SDS011;10194;50.824;7.134;2023-09-08T04:50:04;68.10;;;55.53;;
20067;SDS011;10194;50.824;7.134;2023-09-08T04:52:30;66.20;;;54.73;;
20067;SDS011;10194;50.824;7.134;2023-09-08T04:54:56;65.37;;;54.23;;
20067;SDS011;10194;50.824;7.134;2023-09-08T04:57:22;67.80;;;55.17;;
20067;SDS011;10194;50.824;7.134;2023-09-08T04:59:48;67.40;;;55.23;;
20067;SDS011;10194;50.824;7.134;2023-09-08T05:02:14;62.93;;;53.17;;
20067;SDS011;10194;50.824;7.134;2023-09-08T05:04:40;63.27;;;53.40;;
20067;SDS011;10194;50.824;7.134;2023-09-08T05:07:05;64.87;;;54.07;;
20067;SDS011;10194;50.824;7.134;2023-09-08T05:09:31;67.80;;;55.27;;
20067;SDS011;10194;50.824;7.134;2023-09-08T05:11:58;63.03;;;53.30;;
20067;SDS011;10194;50.824;7.134;2023-09-08T05:14:25;63.90;;;53.57;;
20067;SDS011;10194;50.824;7.134;2023-09-08T05:16:51;67.47;;;55.33;;
20067;SDS011;10194;50.824;7.134;2023-09-08T05:19:20;63.67;;;53.53;;
20067;SDS011;10194;50.824;7.134;2023-09-08T05:21:49;66.40;;;54.70;;
20067;SDS011;10194;50.824;7.134;2023-09-08T05:24:16;67.80;;;55.23;;
20067;SDS011;10194;50.824;7.134;2023-09-08T05:26:42;65.90;;;54.33;;
20067;SDS011;10194;50.824;7.134;2023-09-08T05:29:08;68.30;;;55.60;;
20067;SDS011;10194;50.824;7.134;2023-09-08T05:31:34;66.30;;;54.70;;
20067;SDS011;10194;50.824;7.134;2023-09-08T05:33:59;66.53;;;54.80;;
20067;SDS011;10194;50.824;7.134;2023-09-08T05:36:25;66.93;;;54.90;;
20067;SDS011;10194;50.824;7.134;2023-09-08T05:38:51;70.40;;;56.30;;
20067;SDS011;10194;50.824;7.134;2023-09-08T05:41:17;67.70;;;55.17;;
20067;SDS011;10194;50.824;7.134;2023-09-08T05:43:44;65.87;;;54.60;;
20067;SDS011;10194;50.824;7.134;2023-09-08T05:46:10;69.47;;;56.13;;
20067;SDS011;10194;50.824;7.134;2023-09-08T05:48:39;66.90;;;55.27;;
20067;SDS011;10194;50.824;7.134;2023-09-08T05:51:05;67.80;;;55.53;;
20067;SDS011;10194;50.824;7.134;2023-09-08T05:53:31;66.37;;;54.90;;
20067;SDS011;10194;50.824;7.134;2023-09-08T05:55:58;63.20;;;53.60;;
20067;SDS011;10194;50.824;7.134;2023-09-08T05:58:24;65.83;;;54.70;;
20067;SDS011;10194;50.824;7.134;2023-09-08T06:00:52;70.33;;;57.03;;
20067;SDS011;10194;50.824;7.134;2023-09-08T06:03:19;68.40;;;55.93;;
20067;SDS011;10194;50.824;7.134;2023-09-08T06:05:44;68.53;;;56.47;;
20067;SDS011;10194;50.824;7.134;2023-09-08T06:08:10;71.83;;;58.07;;
20067;SDS011;10194;50.824;7.134;2023-09-08T06:10:37;70.70;;;57.60;;
20067;SDS011;10194;50.824;7.134;2023-09-08T06:13:03;68.00;;;56.23;;
20067;SDS011;10194;50.824;7.134;2023-09-08T06:15:29;68.57;;;57.37;;
20067;SDS011;10194;50.824;7.134;2023-09-08T06:17:55;71.90;;;60.27;;
20067;SDS011;10194;50.824;7.134;2023-09-08T06:20:21;73.40;;;62.57;;
20067;SDS011;10194;50.824;7.134;2023-09-08T06:22:47;74.23;;;63.97;;
20067;SDS011;10194;50.824;7.134;2023-09-08T06:25:13;76.47;;;65.97;;
20067;SDS011;10194;50.824;7.134;2023-09-08T06:27:39;76.77;;;67.60;;
20067;SDS011;10194;50.824;7.134;2023-09-08T06:30:05;77.13;;;68.63;;
20067;SDS011;10194;50.824;7.134;2023-09-08T06:32:32;75.90;;;67.47;;
20067;SDS011;10194;50.824;7.134;2023-09-08T06:34:58;77.60;;;69.00;;
20067;SDS011;10194;50.824;7.134;2023-09-08T06:37:24;77.43;;;68.93;;
20067;SDS011;10194;50.824;7.134;2023-09-08T06:39:50;78.57;;;70.03;;
20067;SDS011;10194;50.824;7.134;2023-09-08T06:42:15;78.60;;;70.00;;
20067;SDS011;10194;50.824;7.134;2023-09-08T06:44:41;77.90;;;69.37;;
20067;SDS011;10194;50.824;7.134;2023-09-08T06:47:07;79.17;;;70.63;;
20067;SDS011;10194;50.824;7.134;2023-09-08T06:49:33;79.63;;;71.07;;
20067;SDS011;10194;50.824;7.134;2023-09-08T06:51:58;79.93;;;71.33;;
20067;SDS011;10194;50.824;7.134;2023-09-08T06:54:24;80.60;;;71.93;;
20067;SDS011;10194;50.824;7.134;2023-09-08T06:56:50;80.93;;;72.27;;
20067;SDS011;10194;50.824;7.134;2023-09-08T06:59:16;80.33;;;71.63;;
20067;SDS011;10194;50.824;7.134;2023-09-08T07:01:42;80.53;;;71.83;;
20067;SDS011;10194;50.824;7.134;2023-09-08T07:04:08;78.77;;;70.20;;
20067;SDS011;10194;50.824;7.134;2023-09-08T07:06:33;79.83;;;71.20;;
20067;SDS011;10194;50.824;7.134;2023-09-08T07:09:02;81.23;;;72.57;;
20067;SDS011;10194;50.824;7.134;2023-09-08T07:11:27;81.73;;;73.03;;
20067;SDS011;10194;50.824;7.134;2023-09-08T07:13:54;81.27;;;72.57;;
20067;SDS011;10194;50.824;7.134;2023-09-08T07:16:19;80.53;;;71.93;;
20067;SDS011;10194;50.824;7.134;2023-09-08T07:18:45;81.60;;;72.83;;
20067;SDS011;10194;50.824;7.134;2023-09-08T07:21:11;80.97;;;72.30;;
20067;SDS011;10194;50.824;7.134;2023-09-08T07:23:37;80.90;;;72.27;;
20067;SDS011;10194;50.824;7.134;2023-09-08T07:26:03;80.50;;;71.90;;
20067;SDS011;10194;50.824;7.134;2023-09-08T07:28:29;79.93;;;71.33;;
20067;SDS011;10194;50.824;7.134;2023-09-08T07:31:00;81.63;;;72.93;;
20067;SDS011;10194;50.824;7.134;2023-09-08T07:33:27;82.83;;;74.07;;
20067;SDS011;10194;50.824;7.134;2023-09-08T07:35:53;82.97;;;74.20;;
20067;SDS011;10194;50.824;7.134;2023-09-08T07:38:19;80.43;;;71.83;;
20067;SDS011;10194;50.824;7.134;2023-09-08T07:40:45;79.70;;;71.10;;
20067;SDS011;10194;50.824;7.134;2023-09-08T07:43:10;79.20;;;70.60;;
20067;SDS011;10194;50.824;7.134;2023-09-08T07:45:36;80.83;;;71.83;;
20067;SDS011;10194;50.824;7.134;2023-09-08T07:48:02;79.40;;;70.30;;
20067;SDS011;10194;50.824;7.134;2023-09-08T07:50:28;77.53;;;69.00;;
20067;SDS011;10194;50.824;7.134;2023-09-08T07:52:55;79.43;;;69.77;;
20067;SDS011;10194;50.824;7.134;2023-09-08T07:55:22;77.73;;;68.90;;
20067;SDS011;10194;50.824;7.134;2023-09-08T07:57:49;76.37;;;66.77;;
20067;SDS011;10194;50.824;7.134;2023-09-08T08:00:15;76.37;;;66.97;;
20067;SDS011;10194;50.824;7.134;2023-09-08T08:02:48;77.57;;;67.40;;
20067;SDS011;10194;50.824;7.134;2023-09-08T08:05:21;75.90;;;66.10;;
20067;SDS011;10194;50.824;7.134;2023-09-08T08:07:48;77.57;;;68.10;;
20067;SDS011;10194;50.824;7.134;2023-09-08T08:10:14;76.67;;;67.83;;
20067;SDS011;10194;50.824;7.134;2023-09-08T08:12:40;76.27;;;67.47;;
20067;SDS011;10194;50.824;7.134;2023-09-08T08:15:08;76.43;;;66.80;;
20067;SDS011;10194;50.824;7.134;2023-09-08T08:17:38;77.43;;;68.10;;
20067;SDS011;10194;50.824;7.134;2023-09-08T08:20:05;76.70;;;67.57;;
20067;SDS011;10194;50.824;7.134;2023-09-08T08:22:34;77.10;;;67.67;;
20067;SDS011;10194;50.824;7.134;2023-09-08T08:25:03;76.50;;;67.00;;
20067;SDS011;10194;50.824;7.134;2023-09-08T08:27:30;77.37;;;68.60;;
20067;SDS011;10194;50.824;7.134;2023-09-08T08:29:56;78.07;;;68.83;;
20067;SDS011;10194;50.824;7.134;2023-09-08T08:32:25;76.73;;;67.90;;
20067;SDS011;10194;50.824;7.134;2023-09-08T08:34:54;77.33;;;68.30;;
20067;SDS011;10194;50.824;7.134;2023-09-08T08:37:20;77.27;;;68.27;;
20067;SDS011;10194;50.824;7.134;2023-09-08T08:39:46;78.60;;;69.47;;
20067;SDS011;10194;50.824;7.134;2023-09-08T08:42:12;77.83;;;69.23;;
20067;SDS011;10194;50.824;7.134;2023-09-08T08:44:39;78.20;;;69.60;;
20067;SDS011;10194;50.824;7.134;2023-09-08T08:47:07;76.60;;;68.00;;
20067;SDS011;10194;50.824;7.134;2023-09-08T08:49:34;78.53;;;69.83;;
20067;SDS011;10194;50.824;7.134;2023-09-08T08:52:03;79.00;;;69.43;;
20067;SDS011;10194;50.824;7.134;2023-09-08T08:54:37;78.13;;;69.50;;
20067;SDS011;10194;50.824;7.134;2023-09-08T08:57:05;76.90;;;68.33;;
20067;SDS011;10194;50.824;7.134;2023-09-08T08:59:32;78.33;;;69.37;;
20067;SDS011;10194;50.824;7.134;2023-09-08T09:01:58;76.73;;;68.20;;
20067;SDS011;10194;50.824;7.134;2023-09-08T09:04:24;77.50;;;68.97;;
20067;SDS011;10194;50.824;7.134;2023-09-08T09:06:52;76.40;;;67.87;;
20067;SDS011;10194;50.824;7.134;2023-09-08T09:09:19;77.73;;;69.23;;
20067;SDS011;10194;50.824;7.134;2023-09-08T09:11:45;78.77;;;70.13;;
20067;SDS011;10194;50.824;7.134;2023-09-08T09:14:11;79.10;;;70.40;;
20067;SDS011;10194;50.824;7.134;2023-09-08T09:16:41;78.40;;;69.80;;
20067;SDS011;10194;50.824;7.134;2023-09-08T09:19:08;78.53;;;69.93;;
20067;SDS011;10194;50.824;7.134;2023-09-08T09:24:14;79.40;;;70.70;;
20067;SDS011;10194;50.824;7.134;2023-09-08T09:26:53;79.87;;;71.17;;
20067;SDS011;10194;50.824;7.134;2023-09-08T09:29:21;79.87;;;71.13;;
20067;SDS011;10194;50.824;7.134;2023-09-08T09:31:51;79.73;;;71.03;;
20067;SDS011;10194;50.824;7.134;2023-09-08T09:34:31;79.53;;;70.90;;
20067;SDS011;10194;50.824;7.134;2023-09-08T09:36:57;80.43;;;71.73;;
20067;SDS011;10194;50.824;7.134;2023-09-08T09:39:24;80.17;;;71.50;;
20067;SDS011;10194;50.824;7.134;2023-09-08T09:41:54;80.13;;;71.47;;
20067;SDS011;10194;50.824;7.134;2023-09-08T09:44:22;80.07;;;71.43;;
20067;SDS011;10194;50.824;7.134;2023-09-08T09:46:51;80.63;;;72.00;;
20067;SDS011;10194;50.824;7.134;2023-09-08T09:49:17;81.03;;;72.27;;
20067;SDS011;10194;50.824;7.134;2023-09-08T09:51:44;80.63;;;71.93;;
20067;SDS011;10194;50.824;7.134;2023-09-08T09:54:18;81.50;;;72.70;;
20067;SDS011;10194;50.824;7.134;2023-09-08T09:56:44;80.33;;;71.70;;
20067;SDS011;10194;50.824;7.134;2023-09-08T09:59:13;80.30;;;71.70;;
20067;SDS011;10194;50.824;7.134;2023-09-08T10:01:40;80.73;;;72.07;;
20067;SDS011;10194;50.824;7.134;2023-09-08T10:04:07;79.97;;;71.37;;
20067;SDS011;10194;50.824;7.134;2023-09-08T10:06:34;79.83;;;71.23;;
20067;SDS011;10194;50.824;7.134;2023-09-08T10:09:03;80.00;;;71.40;;
20067;SDS011;10194;50.824;7.134;2023-09-08T10:11:45;82.10;;;73.30;;
20067;SDS011;10194;50.824;7.134;2023-09-08T10:14:14;81.33;;;72.57;;
20067;SDS011;10194;50.824;7.134;2023-09-08T10:16:43;81.63;;;72.97;;
20067;SDS011;10194;50.824;7.134;2023-09-08T10:19:14;80.70;;;72.10;;
20067;SDS011;10194;50.824;7.134;2023-09-08T10:21:42;82.83;;;73.93;;
20067;SDS011;10194;50.824;7.134;2023-09-08T10:24:32;82.77;;;73.87;;
20067;SDS011;10194;50.824;7.134;2023-09-08T10:27:07;82.53;;;73.73;;
20067;SDS011;10194;50.824;7.134;2023-09-08T10:29:37;82.70;;;73.87;;
20067;SDS011;10194;50.824;7.134;2023-09-08T10:32:04;82.93;;;74.10;;
20067;SDS011;10194;50.824;7.134;2023-09-08T10:34:34;81.47;;;72.77;;
20067;SDS011;10194;50.824;7.134;2023-09-08T10:37:01;82.20;;;73.47;;
20067;SDS011;10194;50.824;7.134;2023-09-08T10:44:59;81.40;;;72.70;;
20067;SDS011;10194;50.824;7.134;2023-09-08T10:50:19;83.37;;;74.57;;
20067;SDS011;10194;50.824;7.134;2023-09-08T10:53:10;82.57;;;73.83;;
20067;SDS011;10194;50.824;7.134;2023-09-08T10:55:48;82.40;;;73.63;;
20067;SDS011;10194;50.824;7.134;2023-09-08T11:01:12;82.73;;;73.83;;
20067;SDS011;10194;50.824;7.134;2023-09-08T11:06:07;82.97;;;74.20;;
20067;SDS011;10194;50.824;7.134;2023-09-08T11:08:38;83.37;;;74.57;;
20067;SDS011;10194;50.824;7.134;2023-09-08T11:11:12;83.07;;;74.30;;
20067;SDS011;10194;50.824;7.134;2023-09-08T11:13:39;81.97;;;73.30;;
20067;SDS011;10194;50.824;7.134;2023-09-08T11:16:06;83.60;;;74.70;;
20067;SDS011;10194;50.824;7.134;2023-09-08T11:18:33;81.93;;;73.27;;
20067;SDS011;10194;50.824;7.134;2023-09-08T11:21:00;82.50;;;73.80;;
20067;SDS011;10194;50.824;7.134;2023-09-08T11:23:28;82.67;;;73.97;;
20067;SDS011;10194;50.824;7.134;2023-09-08T11:25:54;81.67;;;73.03;;
20067;SDS011;10194;50.824;7.134;2023-09-08T11:28:23;83.67;;;74.70;;
20067;SDS011;10194;50.824;7.134;2023-09-08T11:30:49;82.40;;;73.70;;
20067;SDS011;10194;50.824;7.134;2023-09-08T11:33:19;81.63;;;72.97;;
20067;SDS011;10194;50.824;7.134;2023-09-08T11:35:53;82.53;;;73.83;;
20067;SDS011;10194;50.824;7.134;2023-09-08T11:38:26;83.77;;;74.80;;
20067;SDS011;10194;50.824;7.134;2023-09-08T11:40:54;82.87;;;74.13;;
20067;SDS011;10194;50.824;7.134;2023-09-08T11:43:22;83.27;;;74.53;;
20067;SDS011;10194;50.824;7.134;2023-09-08T11:45:49;82.37;;;73.67;;
20067;SDS011;10194;50.824;7.134;2023-09-08T11:48:15;83.67;;;74.77;;
20067;SDS011;10194;50.824;7.134;2023-09-08T11:50:41;81.77;;;73.10;;
20067;SDS011;10194;50.824;7.134;2023-09-08T11:53:09;82.13;;;73.43;;
20067;SDS011;10194;50.824;7.134;2023-09-08T11:55:35;83.07;;;74.37;;
20067;SDS011;10194;50.824;7.134;2023-09-08T11:58:07;82.57;;;73.77;;
20067;SDS011;10194;50.824;7.134;2023-09-08T12:00:33;89.00;;;78.93;;
20067;SDS011;10194;50.824;7.134;2023-09-08T12:03:09;83.13;;;74.37;;
20067;SDS011;10194;50.824;7.134;2023-09-08T12:05:40;83.30;;;74.50;;
20067;SDS011;10194;50.824;7.134;2023-09-08T12:08:07;85.73;;;76.57;;
20067;SDS011;10194;50.824;7.134;2023-09-08T12:10:40;83.00;;;74.23;;
20067;SDS011;10194;50.824;7.134;2023-09-08T12:13:06;82.33;;;73.63;;
20067;SDS011;10194;50.824;7.134;2023-09-08T12:18:07;84.40;;;75.40;;
20067;SDS011;10194;50.824;7.134;2023-09-08T12:20:36;82.33;;;73.63;;
20067;SDS011;10194;50.824;7.134;2023-09-08T12:23:05;83.20;;;74.37;;
20067;SDS011;10194;50.824;7.134;2023-09-08T12:25:45;82.47;;;73.77;;
20067;SDS011;10194;50.824;7.134;2023-09-08T12:28:13;83.77;;;74.87;;
20067;SDS011;10194;50.824;7.134;2023-09-08T12:30:39;83.63;;;74.87;;
20067;SDS011;10194;50.824;7.134;2023-09-08T12:33:04;81.90;;;73.30;;
20067;SDS011;10194;50.824;7.134;2023-09-08T12:35:30;81.87;;;73.27;;
20067;SDS011;10194;50.824;7.134;2023-09-08T12:37:57;82.40;;;73.77;;
20067;SDS011;10194;50.824;7.134;2023-09-08T12:40:28;81.97;;;73.30;;
20067;SDS011;10194;50.824;7.134;2023-09-08T12:42:55;83.73;;;75.00;;
20067;SDS011;10194;50.824;7.134;2023-09-08T12:45:25;82.93;;;74.23;;
20067;SDS011;10194;50.824;7.134;2023-09-08T12:47:52;83.47;;;74.70;;
20067;SDS011;10194;50.824;7.134;2023-09-08T12:50:20;83.10;;;74.40;;
20067;SDS011;10194;50.824;7.134;2023-09-08T12:52:46;83.87;;;75.07;;
20067;SDS011;10194;50.824;7.134;2023-09-08T12:55:11;83.40;;;74.70;;
20067;SDS011;10194;50.824;7.134;2023-09-08T12:57:38;83.70;;;74.90;;
20067;SDS011;10194;50.824;7.134;2023-09-08T13:00:04;82.97;;;74.30;;
20067;SDS011;10194;50.824;7.134;2023-09-08T13:02:31;83.80;;;75.03;;
20067;SDS011;10194;50.824;7.134;2023-09-08T13:04:57;83.27;;;74.57;;
20067;SDS011;10194;50.824;7.134;2023-09-08T13:07:23;83.33;;;74.57;;
20067;SDS011;10194;50.824;7.134;2023-09-08T13:09:49;83.00;;;74.30;;
20067;SDS011;10194;50.824;7.134;2023-09-08T13:12:15;82.93;;;74.23;;
20067;SDS011;10194;50.824;7.134;2023-09-08T13:14:41;83.27;;;74.57;;
20067;SDS011;10194;50.824;7.134;2023-09-08T13:17:08;83.40;;;74.60;;
20067;SDS011;10194;50.824;7.134;2023-09-08T13:19:35;82.87;;;74.17;;
20067;SDS011;10194;50.824;7.134;2023-09-08T13:22:03;83.17;;;74.47;;
20067;SDS011;10194;50.824;7.134;2023-09-08T13:24:32;84.73;;;75.73;;
20067;SDS011;10194;50.824;7.134;2023-09-08T13:26:59;84.07;;;75.27;;
20067;SDS011;10194;50.824;7.134;2023-09-08T13:29:25;84.97;;;76.07;;
20067;SDS011;10194;50.824;7.134;2023-09-08T13:31:52;86.43;;;77.43;;
20067;SDS011;10194;50.824;7.134;2023-09-08T13:34:19;103.17;;;86.83;;
20067;SDS011;10194;50.824;7.134;2023-09-08T13:36:46;85.07;;;76.17;;
20067;SDS011;10194;50.824;7.134;2023-09-08T13:39:12;85.37;;;76.47;;
20067;SDS011;10194;50.824;7.134;2023-09-08T13:44:16;86.83;;;77.77;;
20067;SDS011;10194;50.824;7.134;2023-09-08T13:46:43;86.50;;;77.30;;
20067;SDS011;10194;50.824;7.134;2023-09-08T13:49:14;84.70;;;75.80;;
20067;SDS011;10194;50.824;7.134;2023-09-08T13:51:40;84.73;;;75.83;;
20067;SDS011;10194;50.824;7.134;2023-09-08T13:54:07;83.50;;;74.70;;
20067;SDS011;10194;50.824;7.134;2023-09-08T13:56:34;84.57;;;75.77;;
20067;SDS011;10194;50.824;7.134;2023-09-08T13:59:03;84.87;;;75.97;;
20067;SDS011;10194;50.824;7.134;2023-09-08T14:01:29;85.23;;;76.30;;
20067;SDS011;10194;50.824;7.134;2023-09-08T14:03:55;84.50;;;75.70;;
20067;SDS011;10194;50.824;7.134;2023-09-08T14:06:22;84.37;;;75.47;;
20067;SDS011;10194;50.824;7.134;2023-09-08T14:08:49;83.50;;;74.80;;
20067;SDS011;10194;50.824;7.134;2023-09-08T14:11:15;84.67;;;75.87;;
20067;SDS011;10194;50.824;7.134;2023-09-08T14:13:41;84.10;;;75.30;;
20067;SDS011;10194;50.824;7.134;2023-09-08T14:16:08;84.33;;;75.53;;
20067;SDS011;10194;50.824;7.134;2023-09-08T14:18:34;83.97;;;75.27;;
20067;SDS011;10194;50.824;7.134;2023-09-08T14:21:00;85.60;;;76.60;;
20067;SDS011;10194;50.824;7.134;2023-09-08T14:23:26;83.57;;;74.87;;
20067;SDS011;10194;50.824;7.134;2023-09-08T14:25:52;87.47;;;78.13;;
20067;SDS011;10194;50.824;7.134;2023-09-08T14:28:19;84.90;;;76.00;;
20067;SDS011;10194;50.824;7.134;2023-09-08T14:30:45;84.50;;;75.70;;
20067;SDS011;10194;50.824;7.134;2023-09-08T14:33:10;85.30;;;76.43;;
20067;SDS011;10194;50.824;7.134;2023-09-08T14:35:40;85.00;;;76.20;;
20067;SDS011;10194;50.824;7.134;2023-09-08T14:38:08;87.27;;;77.97;;
20067;SDS011;10194;50.824;7.134;2023-09-08T14:40:34;85.37;;;76.47;;
20067;SDS011;10194;50.824;7.134;2023-09-08T14:43:00;84.33;;;75.60;;
20067;SDS011;10194;50.824;7.134;2023-09-08T14:45:26;84.93;;;76.10;;
20067;SDS011;10194;50.824;7.134;2023-09-08T14:47:52;85.43;;;76.53;;
20067;SDS011;10194;50.824;7.134;2023-09-08T14:50:18;84.43;;;75.63;;
20067;SDS011;10194;50.824;7.134;2023-09-08T14:52:44;85.47;;;76.43;;